Oriana — ZCDU9 — position and weather

sailwx.info

Track history (hours):
 
Tides and Currents Weather Stations Pressure Air Temp Water Temp Dewpoint Dewpoint Depression Visibility Wind Speed Wind Dir Waves Ship Positions

Oriana (Bermuda)

Last reported at 2018-Apr-20 05:59 UTC. Time now 2018-Apr-20 06:27 UTC.
Position N 50°54' W 001°26'.

Length 261 m; beam 32.2 m; draft 8.2 m.

Type: Ship. MMSI: 310529000.

Date/timePositionNaut miles runAvg speedWind from/ knotsBaromVisibWave heightAir tempDewpointWater temp
2018-Apr-20 05:59N 50°54' W 001°26'0 0.0
2018-Apr-20 05:26N 50°54' W 001°26'0 0.6
2018-Apr-20 05:00N 50°54' W 001°26'1 2.6
2018-Apr-20 04:30N 50°54' W 001°25'5 9.5
2018-Apr-20 04:00N 50°50' W 001°19'4 8.5
2018-Apr-20 03:30N 50°46' W 001°16'1019.6
2018-Apr-20 03:00N 50°43' W 001°01'612.3
2018-Apr-20 02:30N 50°37' W 000°59'713.7
2018-Apr-20 02:01N 50°31' W 001°04'5 9.8
2018-Apr-20 01:31N 50°28' W 001°10'510.7
2018-Apr-20 01:00N 50°25' W 001°17'611.5
2018-Apr-20 00:31N 50°22' W 001°24'611.8
2018-Apr-20 00:00N 50°18' W 001°32'612.7
2018-Apr-19 23:30N 50°17' W 001°41'612.7
2018-Apr-19 23:01N 50°17' W 001°51'713.5
2018-Apr-19 22:30N 50°16' W 002°02'713.3
2018-Apr-19 22:01N 50°13' W 002°11'611.9
2018-Apr-19 21:30N 50°07' W 002°14'713.8
2018-Apr-19 21:00N 50°00' W 002°18'612.4
2018-Apr-19 20:30N 49°56' W 002°25'713.2
2018-Apr-19 20:00N 49°55' W 002°35'714.4
2018-Apr-19 19:30N 49°52' W 002°45'815.3
2018-Apr-19 19:01N 49°49' W 002°56'714.5
2018-Apr-19 18:31N 49°44' W 003°04'714.3
2018-Apr-19 18:01N 49°38' W 003°11'714.6
2018-Apr-19 17:31N 49°35' W 003°21'815.1
2018-Apr-19 17:00N 49°30' W 003°30'3315.1
2018-Apr-19 14:50N 49°11' W 004°11'2213.7
2018-Apr-19 13:15N 48°58' W 004°37'612.9
2018-Apr-19 12:49N 48°54' W 004°44'712.7
2018-Apr-19 12:15N 48°50' W 004°52'2712.4
2018-Apr-19 10:04N 48°31' W 005°23'113.2
2018-Apr-19 09:58N 48°30' W 005°24'1213.5
2018-Apr-19 09:06N 48°20' W 005°33'212.9
2018-Apr-19 08:58N 48°19' W 005°34'713.4
2018-Apr-19 08:25N 48°12' W 005°40'613.6
2018-Apr-19 08:00N 48°08' W 005°44'713.7
2018-Apr-19 07:28N 48°01' W 005°49'713.6
2018-Apr-19 06:57N 47°55' W 005°54'613.9
2018-Apr-19 06:30N 47°50' W 005°59'714.3
2018-Apr-19 06:00N 47°43' W 006°04'714.6
2018-Apr-19 05:30N 47°37' W 006°10'914.8
2018-Apr-19 04:55N 47°30' W 006°16'8116.5
2018-Apr-19 00:00N 46°18' W 007°12'18018.0 210 / 81023.510.8 13.411.912.0
2018-Apr-18 14:00N 43°42' W 009°18'11015.7 190 / 111019.810.8 13.711.713.0
2018-Apr-18 07:00N 41°54' W 009°48'7616.3 200 / 91021.5 5.4 14.312.913.0
2018-Apr-18 02:20N 40°38' W 009°49'1440.5
2018-Apr-18 02:00N 40°24' W 009°48'8666.7 160 / 71022.6 5.4 13.613.213.0
2018-Apr-18 01:59N 40°32' W 009°49'816.9
2018-Apr-18 01:30N 40°24' W 009°50'816.5
2018-Apr-18 01:00N 40°16' W 009°48'816.9
2018-Apr-18 00:30N 40°08' W 009°49'816.8
2018-Apr-18 00:00N 39°59' W 009°50'916.7
2018-Apr-17 23:29N 39°50' W 009°50'816.9
2018-Apr-17 23:00N 39°42' W 009°50'816.8
2018-Apr-17 22:30N 39°34' W 009°51'1019.9
2018-Apr-17 22:00N 39°24' W 009°48'244.9 090 / 21023.910.8 19.014.2
2018-Apr-17 21:57N 39°25' W 009°50'716.1
2018-Apr-17 21:30N 39°18' W 009°49'815.9
2018-Apr-17 21:00N 39°10' W 009°47'815.8
2018-Apr-17 20:30N 39°02' W 009°46'815.7
2018-Apr-17 20:00N 38°54' W 009°44'815.4
2018-Apr-17 19:30N 38°47' W 009°43'815.8
2018-Apr-17 19:00N 38°39' W 009°41'815.1
2018-Apr-17 18:30N 38°37' W 009°32'714.8
2018-Apr-17 18:00N 38°37' W 009°22'815.1
2018-Apr-17 17:30N 38°41' W 009°14'510.3
2018-Apr-17 17:00N 38°42' W 009°07'0 0.4
2018-Apr-17 16:29N 38°43' W 009°08'0 0.0
2018-Apr-17 15:59N 38°43' W 009°08'0 0.0
2018-Apr-17 15:28N 38°43' W 009°08'0 0.0
2018-Apr-17 14:47N 38°43' W 009°08'0 0.0
2018-Apr-17 14:29N 38°43' W 009°08'0 0.0
2018-Apr-17 13:23N 38°43' W 009°08'0 0.0
2018-Apr-17 12:56N 38°43' W 009°08'0 0.0
2018-Apr-17 12:28N 38°43' W 009°08'0 0.0
2018-Apr-17 11:03N 38°43' W 009°08'0 0.0
2018-Apr-17 10:54N 38°43' W 009°08'0 0.0
2018-Apr-17 10:28N 38°43' W 009°08'0 0.0
2018-Apr-17 09:58N 38°43' W 009°08'0 0.0
2018-Apr-17 09:26N 38°43' W 009°08'0 0.0
2018-Apr-17 08:58N 38°43' W 009°08'0 0.0
2018-Apr-17 08:30N 38°43' W 009°08'0 0.0
2018-Apr-17 07:59N 38°43' W 009°08'0 0.6
2018-Apr-17 07:30N 38°42' W 009°08'4 7.2
2018-Apr-17 07:00N 38°41' W 009°12'6 8.9
2018-Apr-17 06:22N 38°40' W 009°19'513.5
2018-Apr-17 06:01N 38°36' W 009°24'816.5
2018-Apr-17 05:31N 38°30' W 009°30'917.1
2018-Apr-17 05:00N 38°23' W 009°36'916.9
2018-Apr-17 04:30N 38°16' W 009°42'917.4
2018-Apr-17 03:59N 38°08' W 009°49'816.6
2018-Apr-17 03:30N 38°02' W 009°54'5618.2
2018-Apr-17 00:25N 37°15' W 010°34'4418.3
2018-Apr-16 22:00N 36°36' W 011°00'8227.3 180 / 81017.810.8 16.512.0
2018-Apr-16 19:00N 35°30' W 012°00'15422.0 190 / 61021.310.8 16.512.017.0
2018-Apr-16 12:00N 33°24' W 013°48'7214.5 230 / 21022.727.0 18.014.619.0
2018-Apr-16 07:00N 32°24' W 014°36'17719.6 040 / 61021.710.8 18.014.619.0
2018-Apr-15 22:00N 30°00' W 016°36'8120.3 010 / 51021.810.8 19.013.8
2018-Apr-15 18:00N 28°54' W 017°30'59 3.3 360 / 91022.010.8 19.013.819.0
2018-Apr-15 00:00N 28°42' W 016°24'2 6.0 360 / 81025.410.8 17.712.719.0
2018-Apr-14 23:44N 28°42' W 016°22'312.4
2018-Apr-14 23:30N 28°42' W 016°19'612.4
2018-Apr-14 22:59N 28°42' W 016°12'611.7
2018-Apr-14 22:30N 28°40' W 016°05'611.4
2018-Apr-14 22:00N 28°36' W 016°01'510.4
2018-Apr-14 21:30N 28°31' W 016°02'611.0
2018-Apr-14 21:00N 28°29' W 016°08'5 9.7
2018-Apr-14 20:30N 28°29' W 016°14'1 1.3
2018-Apr-14 19:58N 28°28' W 016°14'0 0.0
2018-Apr-14 19:28N 28°28' W 016°14'0 0.0
2018-Apr-14 18:58N 28°28' W 016°14'0 0.0
2018-Apr-14 18:28N 28°28' W 016°14'0 0.0
2018-Apr-14 17:58N 28°28' W 016°14'0 0.0
2018-Apr-14 17:28N 28°28' W 016°14'0 0.0
2018-Apr-14 16:58N 28°28' W 016°14'0 0.0
2018-Apr-14 16:28N 28°28' W 016°14'0 0.0
2018-Apr-14 15:58N 28°28' W 016°14'0 0.0
2018-Apr-14 15:28N 28°28' W 016°14'0 0.0
2018-Apr-14 14:58N 28°28' W 016°14'0 0.0
2018-Apr-14 14:30N 28°28' W 016°14'0 0.0
2018-Apr-14 14:00N 28°28' W 016°14'0 0.0
2018-Apr-14 13:29N 28°28' W 016°14'0 0.0
2018-Apr-14 12:59N 28°28' W 016°14'0 0.0
2018-Apr-14 12:29N 28°28' W 016°14'0 0.0
2018-Apr-14 11:59N 28°28' W 016°14'0 0.0
2018-Apr-14 11:29N 28°28' W 016°14'0 0.0
2018-Apr-14 10:58N 28°28' W 016°14'0 0.0
2018-Apr-14 10:28N 28°28' W 016°14'0 0.0
2018-Apr-14 09:58N 28°28' W 016°14'0 0.0
2018-Apr-14 09:28N 28°28' W 016°14'0 0.0
2018-Apr-14 08:58N 28°28' W 016°14'0 0.0
2018-Apr-14 08:28N 28°28' W 016°14'0 0.0
2018-Apr-14 07:58N 28°28' W 016°14'0 0.0
2018-Apr-14 07:27N 28°28' W 016°14'0 0.0
2018-Apr-14 07:00N 28°28' W 016°14'0 1.0
2018-Apr-14 06:30N 28°29' W 016°14'2 3.6
2018-Apr-14 06:00N 28°28' W 016°12'611.6
2018-Apr-14 05:30N 28°26' W 016°06'714.8
2018-Apr-14 05:00N 28°23' W 015°59'612.2
2018-Apr-14 04:30N 28°17' W 015°58'713.3
2018-Apr-14 04:00N 28°12' W 016°02'610.2
2018-Apr-14 03:27N 28°07' W 016°06'14 9.7
2018-Apr-14 02:00N 27°54' W 016°12'26 1.1 010 / 221021.510.8 17.811.418.0
2018-Apr-13 02:00N 27°30' W 016°24'5910.6 060 / 191019.310.8 19.415.418.0
2018-Apr-12 20:27N 27°38' W 015°19'510.9
2018-Apr-12 20:00N 27°43' W 015°18'510.7
2018-Apr-12 19:31N 27°48' W 015°17'610.7
2018-Apr-12 19:00N 27°54' W 015°15'510.8
2018-Apr-12 18:31N 27°59' W 015°15'510.2
2018-Apr-12 18:00N 28°04' W 015°18'510.3
2018-Apr-12 17:31N 28°06' W 015°23'3 6.4
2018-Apr-12 17:00N 28°08' W 015°25'0 0.2
2018-Apr-12 16:21N 28°08' W 015°26'0 0.0
2018-Apr-12 15:54N 28°08' W 015°26'0 0.0
2018-Apr-12 15:24N 28°08' W 015°26'0 0.0
2018-Apr-12 14:54N 28°08' W 015°26'0 0.0
2018-Apr-12 14:24N 28°08' W 015°26'0 0.0
2018-Apr-12 13:54N 28°08' W 015°26'0 0.0
2018-Apr-12 13:24N 28°08' W 015°26'0 0.0
2018-Apr-12 12:57N 28°08' W 015°26'0 0.0
2018-Apr-12 12:27N 28°08' W 015°26'0 0.0
2018-Apr-12 11:57N 28°08' W 015°26'0 0.0
2018-Apr-12 11:27N 28°08' W 015°26'0 0.0
2018-Apr-12 10:57N 28°08' W 015°26'0 0.0
2018-Apr-12 10:30N 28°08' W 015°26'0 0.0
2018-Apr-12 10:00N 28°08' W 015°26'0 0.0
2018-Apr-12 09:30N 28°08' W 015°26'0 0.0
2018-Apr-12 09:00N 28°08' W 015°26'0 0.0
2018-Apr-12 08:30N 28°08' W 015°26'0 0.0
2018-Apr-12 08:00N 28°08' W 015°26'0 0.0
2018-Apr-12 07:30N 28°08' W 015°26'0 0.0
2018-Apr-12 07:00N 28°08' W 015°26'1 1.9
2018-Apr-12 06:30N 28°08' W 015°25'3 5.4
2018-Apr-12 06:00N 28°07' W 015°22'5 9.8
2018-Apr-12 05:30N 28°08' W 015°17'612.1
2018-Apr-12 05:00N 28°10' W 015°10'611.5
2018-Apr-12 04:30N 28°09' W 015°04'611.6
2018-Apr-12 04:00N 28°08' W 014°57'5 9.8
2018-Apr-12 03:30N 28°03' W 014°56'510.6
2018-Apr-12 03:00N 27°58' W 014°58'510.4
2018-Apr-12 02:30N 27°53' W 015°00'5 9.4
2018-Apr-12 01:58N 27°48' W 015°01'4 9.5
2018-Apr-12 01:30N 27°46' W 014°56'510.1
2018-Apr-12 01:00N 27°45' W 014°51'510.1
2018-Apr-12 00:30N 27°44' W 014°45'510.0
2018-Apr-12 00:00N 27°43' W 014°40'510.2
2018-Apr-11 23:30N 27°42' W 014°34'14 9.6
2018-Apr-11 22:00N 27°42' W 014°18'3512.1 010 / 161021.310.8 18.512.2
2018-Apr-11 19:08N 28°07' W 013°51'24 1.7
2018-Apr-11 04:37N 28°26' W 013°34'40 6.0
2018-Apr-10 22:00N 28°48' W 014°12'4511.1 340 / 281022.710.8 18.013.6
2018-Apr-10 18:00N 29°24' W 014°42'12511.3 320 / 171022.510.8 21.012.818.0
2018-Apr-10 07:00N 31°12' W 015°54'   350 / 201024.110.8 15.512.618.0
Track history (hours):
 
Tides and Currents Weather Stations Pressure Air Temp Water Temp Dewpoint Dewpoint Depression Visibility Wind Speed Wind Dir Waves Ship Positions

Oriana (Bermuda)

Last reported at 2018-Apr-20 05:59 UTC. Time now 2018-Apr-20 06:27 UTC.
Position N 50°54' W 001°26'.

Length 261 m; beam 32.2 m; draft 8.2 m.

Type: Ship. MMSI: 310529000.

Date/timePositionNaut miles runAvg speedWind from/ knotsBaromVisibWave heightAir tempDewpointWater temp
2018-Apr-20 05:59N 50°54' W 001°26'0 0.0
2018-Apr-20 05:26N 50°54' W 001°26'0 0.6
2018-Apr-20 05:00N 50°54' W 001°26'1 2.6
2018-Apr-20 04:30N 50°54' W 001°25'5 9.5
2018-Apr-20 04:00N 50°50' W 001°19'4 8.5
2018-Apr-20 03:30N 50°46' W 001°16'1019.6
2018-Apr-20 03:00N 50°43' W 001°01'612.3
2018-Apr-20 02:30N 50°37' W 000°59'713.7
2018-Apr-20 02:01N 50°31' W 001°04'5 9.8
2018-Apr-20 01:31N 50°28' W 001°10'510.7
2018-Apr-20 01:00N 50°25' W 001°17'611.5
2018-Apr-20 00:31N 50°22' W 001°24'611.8
2018-Apr-20 00:00N 50°18' W 001°32'612.7
2018-Apr-19 23:30N 50°17' W 001°41'612.7
2018-Apr-19 23:01N 50°17' W 001°51'713.5
2018-Apr-19 22:30N 50°16' W 002°02'713.3
2018-Apr-19 22:01N 50°13' W 002°11'611.9
2018-Apr-19 21:30N 50°07' W 002°14'713.8
2018-Apr-19 21:00N 50°00' W 002°18'612.4
2018-Apr-19 20:30N 49°56' W 002°25'713.2
2018-Apr-19 20:00N 49°55' W 002°35'714.4
2018-Apr-19 19:30N 49°52' W 002°45'815.3
2018-Apr-19 19:01N 49°49' W 002°56'714.5
2018-Apr-19 18:31N 49°44' W 003°04'714.3
2018-Apr-19 18:01N 49°38' W 003°11'714.6
2018-Apr-19 17:31N 49°35' W 003°21'815.1
2018-Apr-19 17:00N 49°30' W 003°30'3315.1
2018-Apr-19 14:50N 49°11' W 004°11'2213.7
2018-Apr-19 13:15N 48°58' W 004°37'612.9
2018-Apr-19 12:49N 48°54' W 004°44'712.7
2018-Apr-19 12:15N 48°50' W 004°52'2712.4
2018-Apr-19 10:04N 48°31' W 005°23'113.2
2018-Apr-19 09:58N 48°30' W 005°24'1213.5
2018-Apr-19 09:06N 48°20' W 005°33'212.9
2018-Apr-19 08:58N 48°19' W 005°34'713.4
2018-Apr-19 08:25N 48°12' W 005°40'613.6
2018-Apr-19 08:00N 48°08' W 005°44'713.7
2018-Apr-19 07:28N 48°01' W 005°49'713.6
2018-Apr-19 06:57N 47°55' W 005°54'613.9
2018-Apr-19 06:30N 47°50' W 005°59'714.3
2018-Apr-19 06:00N 47°43' W 006°04'714.6
2018-Apr-19 05:30N 47°37' W 006°10'914.8
2018-Apr-19 04:55N 47°30' W 006°16'8116.5
2018-Apr-19 00:00N 46°18' W 007°12'18018.0 210 / 81023.510.8 13.411.912.0
2018-Apr-18 14:00N 43°42' W 009°18'11015.7 190 / 111019.810.8 13.711.713.0
2018-Apr-18 07:00N 41°54' W 009°48'7616.3 200 / 91021.5 5.4 14.312.913.0
2018-Apr-18 02:20N 40°38' W 009°49'1440.5
2018-Apr-18 02:00N 40°24' W 009°48'8666.7 160 / 71022.6 5.4 13.613.213.0
2018-Apr-18 01:59N 40°32' W 009°49'816.9
2018-Apr-18 01:30N 40°24' W 009°50'816.5
2018-Apr-18 01:00N 40°16' W 009°48'816.9
2018-Apr-18 00:30N 40°08' W 009°49'816.8
2018-Apr-18 00:00N 39°59' W 009°50'916.7
2018-Apr-17 23:29N 39°50' W 009°50'816.9
2018-Apr-17 23:00N 39°42' W 009°50'816.8
2018-Apr-17 22:30N 39°34' W 009°51'1019.9
2018-Apr-17 22:00N 39°24' W 009°48'244.9 090 / 21023.910.8 19.014.2
2018-Apr-17 21:57N 39°25' W 009°50'716.1
2018-Apr-17 21:30N 39°18' W 009°49'815.9
2018-Apr-17 21:00N 39°10' W 009°47'815.8
2018-Apr-17 20:30N 39°02' W 009°46'815.7
2018-Apr-17 20:00N 38°54' W 009°44'815.4
2018-Apr-17 19:30N 38°47' W 009°43'815.8
2018-Apr-17 19:00N 38°39' W 009°41'815.1
2018-Apr-17 18:30N 38°37' W 009°32'714.8
2018-Apr-17 18:00N 38°37' W 009°22'815.1
2018-Apr-17 17:30N 38°41' W 009°14'510.3
2018-Apr-17 17:00N 38°42' W 009°07'0 0.4
2018-Apr-17 16:29N 38°43' W 009°08'0 0.0
2018-Apr-17 15:59N 38°43' W 009°08'0 0.0
2018-Apr-17 15:28N 38°43' W 009°08'0 0.0
2018-Apr-17 14:47N 38°43' W 009°08'0 0.0
2018-Apr-17 14:29N 38°43' W 009°08'0 0.0
2018-Apr-17 13:23N 38°43' W 009°08'0 0.0
2018-Apr-17 12:56N 38°43' W 009°08'0 0.0
2018-Apr-17 12:28N 38°43' W 009°08'0 0.0
2018-Apr-17 11:03N 38°43' W 009°08'0 0.0
2018-Apr-17 10:54N 38°43' W 009°08'0 0.0
2018-Apr-17 10:28N 38°43' W 009°08'0 0.0
2018-Apr-17 09:58N 38°43' W 009°08'0 0.0
2018-Apr-17 09:26N 38°43' W 009°08'0 0.0
2018-Apr-17 08:58N 38°43' W 009°08'0 0.0
2018-Apr-17 08:30N 38°43' W 009°08'0 0.0
2018-Apr-17 07:59N 38°43' W 009°08'0 0.6
2018-Apr-17 07:30N 38°42' W 009°08'4 7.2
2018-Apr-17 07:00N 38°41' W 009°12'6 8.9
2018-Apr-17 06:22N 38°40' W 009°19'513.5
2018-Apr-17 06:01N 38°36' W 009°24'816.5
2018-Apr-17 05:31N 38°30' W 009°30'917.1
2018-Apr-17 05:00N 38°23' W 009°36'916.9
2018-Apr-17 04:30N 38°16' W 009°42'917.4
2018-Apr-17 03:59N 38°08' W 009°49'816.6
2018-Apr-17 03:30N 38°02' W 009°54'5618.2
2018-Apr-17 00:25N 37°15' W 010°34'4418.3
2018-Apr-16 22:00N 36°36' W 011°00'8227.3 180 / 81017.810.8 16.512.0
2018-Apr-16 19:00N 35°30' W 012°00'15422.0 190 / 61021.310.8 16.512.017.0
2018-Apr-16 12:00N 33°24' W 013°48'7214.5 230 / 21022.727.0 18.014.619.0
2018-Apr-16 07:00N 32°24' W 014°36'17719.6 040 / 61021.710.8 18.014.619.0
2018-Apr-15 22:00N 30°00' W 016°36'8120.3 010 / 51021.810.8 19.013.8
2018-Apr-15 18:00N 28°54' W 017°30'59 3.3 360 / 91022.010.8 19.013.819.0
2018-Apr-15 00:00N 28°42' W 016°24'2 6.0 360 / 81025.410.8 17.712.719.0
2018-Apr-14 23:44N 28°42' W 016°22'312.4
2018-Apr-14 23:30N 28°42' W 016°19'612.4
2018-Apr-14 22:59N 28°42' W 016°12'611.7
2018-Apr-14 22:30N 28°40' W 016°05'611.4
2018-Apr-14 22:00N 28°36' W 016°01'510.4
2018-Apr-14 21:30N 28°31' W 016°02'611.0
2018-Apr-14 21:00N 28°29' W 016°08'5 9.7
2018-Apr-14 20:30N 28°29' W 016°14'1 1.3
2018-Apr-14 19:58N 28°28' W 016°14'0 0.0
2018-Apr-14 19:28N 28°28' W 016°14'0 0.0
2018-Apr-14 18:58N 28°28' W 016°14'0 0.0
2018-Apr-14 18:28N 28°28' W 016°14'0 0.0
2018-Apr-14 17:58N 28°28' W 016°14'0 0.0
2018-Apr-14 17:28N 28°28' W 016°14'0 0.0
2018-Apr-14 16:58N 28°28' W 016°14'0 0.0
2018-Apr-14 16:28N 28°28' W 016°14'0 0.0
2018-Apr-14 15:58N 28°28' W 016°14'0 0.0
2018-Apr-14 15:28N 28°28' W 016°14'0 0.0
2018-Apr-14 14:58N 28°28' W 016°14'0 0.0
2018-Apr-14 14:30N 28°28' W 016°14'0 0.0
2018-Apr-14 14:00N 28°28' W 016°14'0 0.0
2018-Apr-14 13:29N 28°28' W 016°14'0 0.0
2018-Apr-14 12:59N 28°28' W 016°14'0 0.0
2018-Apr-14 12:29N 28°28' W 016°14'0 0.0
2018-Apr-14 11:59N 28°28' W 016°14'0 0.0
2018-Apr-14 11:29N 28°28' W 016°14'0 0.0
2018-Apr-14 10:58N 28°28' W 016°14'0 0.0
2018-Apr-14 10:28N 28°28' W 016°14'0 0.0
2018-Apr-14 09:58N 28°28' W 016°14'0 0.0
2018-Apr-14 09:28N 28°28' W 016°14'0 0.0
2018-Apr-14 08:58N 28°28' W 016°14'0 0.0
2018-Apr-14 08:28N 28°28' W 016°14'0 0.0
2018-Apr-14 07:58N 28°28' W 016°14'0 0.0
2018-Apr-14 07:27N 28°28' W 016°14'0 0.0
2018-Apr-14 07:00N 28°28' W 016°14'0 1.0
2018-Apr-14 06:30N 28°29' W 016°14'2 3.6
2018-Apr-14 06:00N 28°28' W 016°12'611.6
2018-Apr-14 05:30N 28°26' W 016°06'714.8
2018-Apr-14 05:00N 28°23' W 015°59'612.2
2018-Apr-14 04:30N 28°17' W 015°58'713.3
2018-Apr-14 04:00N 28°12' W 016°02'610.2
2018-Apr-14 03:27N 28°07' W 016°06'14 9.7
2018-Apr-14 02:00N 27°54' W 016°12'26 1.1 010 / 221021.510.8 17.811.418.0
2018-Apr-13 02:00N 27°30' W 016°24'5910.6 060 / 191019.310.8 19.415.418.0
2018-Apr-12 20:27N 27°38' W 015°19'510.9
2018-Apr-12 20:00N 27°43' W 015°18'510.7
2018-Apr-12 19:31N 27°48' W 015°17'610.7
2018-Apr-12 19:00N 27°54' W 015°15'510.8
2018-Apr-12 18:31N 27°59' W 015°15'510.2
2018-Apr-12 18:00N 28°04' W 015°18'510.3
2018-Apr-12 17:31N 28°06' W 015°23'3 6.4
2018-Apr-12 17:00N 28°08' W 015°25'0 0.2
2018-Apr-12 16:21N 28°08' W 015°26'0 0.0
2018-Apr-12 15:54N 28°08' W 015°26'0 0.0
2018-Apr-12 15:24N 28°08' W 015°26'0 0.0
2018-Apr-12 14:54N 28°08' W 015°26'0 0.0
2018-Apr-12 14:24N 28°08' W 015°26'0 0.0
2018-Apr-12 13:54N 28°08' W 015°26'0 0.0
2018-Apr-12 13:24N 28°08' W 015°26'0 0.0
2018-Apr-12 12:57N 28°08' W 015°26'0 0.0
2018-Apr-12 12:27N 28°08' W 015°26'0 0.0
2018-Apr-12 11:57N 28°08' W 015°26'0 0.0
2018-Apr-12 11:27N 28°08' W 015°26'0 0.0
2018-Apr-12 10:57N 28°08' W 015°26'0 0.0
2018-Apr-12 10:30N 28°08' W 015°26'0 0.0
2018-Apr-12 10:00N 28°08' W 015°26'0 0.0
2018-Apr-12 09:30N 28°08' W 015°26'0 0.0
2018-Apr-12 09:00N 28°08' W 015°26'0 0.0
2018-Apr-12 08:30N 28°08' W 015°26'0 0.0
2018-Apr-12 08:00N 28°08' W 015°26'0 0.0
2018-Apr-12 07:30N 28°08' W 015°26'0 0.0
2018-Apr-12 07:00N 28°08' W 015°26'1 1.9
2018-Apr-12 06:30N 28°08' W 015°25'3 5.4
2018-Apr-12 06:00N 28°07' W 015°22'5 9.8
2018-Apr-12 05:30N 28°08' W 015°17'612.1
2018-Apr-12 05:00N 28°10' W 015°10'611.5
2018-Apr-12 04:30N 28°09' W 015°04'611.6
2018-Apr-12 04:00N 28°08' W 014°57'5 9.8
2018-Apr-12 03:30N 28°03' W 014°56'510.6
2018-Apr-12 03:00N 27°58' W 014°58'510.4
2018-Apr-12 02:30N 27°53' W 015°00'5 9.4
2018-Apr-12 01:58N 27°48' W 015°01'4 9.5
2018-Apr-12 01:30N 27°46' W 014°56'510.1
2018-Apr-12 01:00N 27°45' W 014°51'510.1
2018-Apr-12 00:30N 27°44' W 014°45'510.0
2018-Apr-12 00:00N 27°43' W 014°40'510.2
2018-Apr-11 23:30N 27°42' W 014°34'14 9.6
2018-Apr-11 22:00N 27°42' W 014°18'3512.1 010 / 161021.310.8 18.512.2
2018-Apr-11 19:08N 28°07' W 013°51'24 1.7
2018-Apr-11 04:37N 28°26' W 013°34'40 6.0
2018-Apr-10 22:00N 28°48' W 014°12'4511.1 340 / 281022.710.8 18.013.6
2018-Apr-10 18:00N 29°24' W 014°42'12511.3 320 / 171022.510.8 21.012.818.0
2018-Apr-10 07:00N 31°12' W 015°54'   350 / 201024.110.8 15.512.618.0

Dump ship's entire track history